Time;durP1;ratioP1;P1;durP2;ratioP2;P2;SDS_P1;SDS_P2;PMS_P1;PMS_P2;Temp;Humidity;BMP_temperature;BMP_pressure;BME280_temperature;BME280_humidity;BME280_pressure;Samples;Min_cycle;Max_cycle;Signal;HPM_P1;HPM_P2
2024/04/15 00:01:07;;;;;;;0.40;0.20;;;;;;;16.28;72.78;100138.50;5433093;26;20541;-48
2024/04/15 00:03:34;;;;;;;0.40;0.20;;;;;;;16.08;73.74;100140.53;5423043;26;20575;-47
2024/04/15 00:06:00;;;;;;;0.40;0.20;;;;;;;15.97;74.05;100141.97;5451647;26;21071;-48
2024/04/15 00:08:27;;;;;;;0.40;0.20;;;;;;;15.99;73.99;100136.53;5451836;26;20518;-49
2024/04/15 00:10:54;;;;;;;0.40;0.20;;;;;;;15.59;76.42;100127.88;5451600;26;21009;-49
2024/04/15 00:13:20;;;;;;;0.40;0.20;;;;;;;15.51;78.01;100122.03;5451661;26;20798;-48
2024/04/15 00:15:57;;;;;;;0.40;0.20;;;;;;;15.76;76.96;100121.69;5445208;26;20888;-49
2024/04/15 00:18:24;;;;;;;0.40;0.20;;;;;;;15.76;75.44;100107.38;5440844;26;21064;-49
2024/04/15 00:21:00;;;;;;;0.40;0.20;;;;;;;15.50;77.42;100104.25;5451574;26;20533;-49
2024/04/15 00:23:27;;;;;;;0.40;0.20;;;;;;;15.39;78.61;100102.09;5451553;26;20477;-47
2024/04/15 00:25:56;;;;;;;0.40;0.20;;;;;;;15.37;78.65;100092.44;5451671;26;20478;-48
2024/04/15 00:28:24;;;;;;;0.40;0.30;;;;;;;15.31;79.59;100084.69;5451324;26;21077;-48
2024/04/15 00:30:51;;;;;;;0.40;0.20;;;;;;;15.19;80.40;100078.16;5451329;26;20532;-47
2024/04/15 00:33:18;;;;;;;0.40;0.20;;;;;;;15.06;81.88;100075.22;5451119;26;20462;-48
2024/04/15 00:35:45;;;;;;;0.40;0.20;;;;;;;14.92;83.44;100066.16;5451461;26;20533;-47
2024/04/15 00:38:13;;;;;;;0.40;0.20;;;;;;;14.70;84.67;100050.31;5453240;26;20812;-49
2024/04/15 00:40:40;;;;;;;0.40;0.20;;;;;;;14.68;84.76;100054.88;5454986;26;20486;-48
2024/04/15 00:43:07;;;;;;;0.40;0.20;;;;;;;14.70;84.34;100055.66;5454661;26;20517;-48
2024/04/15 00:45:34;;;;;;;0.40;0.20;;;;;;;14.57;85.51;100054.53;5451775;26;20489;-48
2024/04/15 00:48:03;;;;;;;0.40;0.20;;;;;;;14.51;85.94;100053.00;5450548;26;20518;-48
2024/04/15 00:50:35;;;;;;;0.40;0.20;;;;;;;14.55;85.96;100043.91;5433488;26;20490;-48
2024/04/15 00:53:03;;;;;;;0.40;0.20;;;;;;;14.58;86.21;100050.91;5428237;26;20470;-48
2024/04/15 00:55:34;;;;;;;0.40;0.20;;;;;;;14.56;86.76;100051.00;5454780;26;20474;-49
2024/04/15 00:58:01;;;;;;;0.40;0.20;;;;;;;14.52;85.76;100052.91;5454417;26;20514;-49
2024/04/15 01:00:28;;;;;;;0.40;0.20;;;;;;;14.53;85.61;100048.47;5454310;26;20473;-48
2024/04/15 01:02:55;;;;;;;0.40;0.20;;;;;;;14.60;84.38;100043.66;5454247;26;20529;-48
2024/04/15 01:05:22;;;;;;;0.40;0.20;;;;;;;14.61;85.26;100024.88;5454557;26;20537;-47
2024/04/15 01:07:49;;;;;;;0.40;0.20;;;;;;;14.54;86.12;100020.78;5454282;26;20470;-47
2024/04/15 01:10:16;;;;;;;0.40;0.30;;;;;;;14.56;85.93;100010.88;5454431;26;20510;-49
2024/04/15 01:12:43;;;;;;;0.40;0.20;;;;;;;14.48;86.11;100011.22;5454052;26;20525;-48
2024/04/15 01:15:09;;;;;;;0.40;0.20;;;;;;;14.49;87.11;100002.25;5454701;26;20545;-48
2024/04/15 01:17:36;;;;;;;0.40;0.20;;;;;;;14.40;87.19;100010.72;5449283;26;20874;-48
2024/04/15 01:20:03;;;;;;;0.40;0.20;;;;;;;14.54;87.43;100009.22;5454353;26;20592;-49
2024/04/15 01:22:34;;;;;;;0.40;0.20;;;;;;;14.69;85.60;100005.78;5406821;26;20862;-48
2024/04/15 01:25:01;;;;;;;0.40;0.20;;;;;;;14.61;84.97;99994.56;5454051;26;20555;-49
2024/04/15 01:27:28;;;;;;;0.40;0.20;;;;;;;14.58;85.41;99987.56;5454352;26;20477;-48
2024/04/15 01:29:55;;;;;;;0.40;0.20;;;;;;;14.66;86.45;99985.38;5454045;26;20474;-47
2024/04/15 01:32:21;;;;;;;0.40;0.20;;;;;;;14.75;85.49;99987.59;5454073;26;20520;-48
2024/04/15 01:34:48;;;;;;;0.40;0.20;;;;;;;14.62;86.01;99975.78;5453862;26;20473;-49
2024/04/15 01:37:14;;;;;;;0.40;0.20;;;;;;;14.64;85.97;99978.38;5454312;26;20525;-48
2024/04/15 01:39:41;;;;;;;0.40;0.20;;;;;;;14.64;87.35;99973.00;5452074;26;20525;-48
2024/04/15 01:42:07;;;;;;;0.37;0.20;;;;;;;14.64;87.62;99967.66;5454189;26;20477;-48
2024/04/15 01:44:34;;;;;;;0.40;0.20;;;;;;;14.54;88.20;99963.75;5453696;26;20803;-48
2024/04/15 01:47:00;;;;;;;0.30;0.20;;;;;;;14.61;87.65;99965.16;5445204;26;20522;-48
2024/04/15 01:49:27;;;;;;;0.40;0.20;;;;;;;14.65;87.15;99961.38;5447092;26;20530;-48
2024/04/15 01:51:54;;;;;;;0.40;0.20;;;;;;;14.68;87.29;99959.44;5417769;26;20894;-48
2024/04/15 01:54:20;;;;;;;0.40;0.20;;;;;;;14.78;87.06;99968.69;5422437;26;20527;-48
2024/04/15 01:56:47;;;;;;;0.40;0.20;;;;;;;14.74;88.01;99976.97;5453908;26;21045;-47
2024/04/15 01:59:13;;;;;;;0.40;0.20;;;;;;;14.63;88.25;99966.81;5453486;26;20470;-48
2024/04/15 02:01:40;;;;;;;0.40;0.20;;;;;;;14.69;87.89;99958.47;5453988;26;20486;-51
2024/04/15 02:04:07;;;;;;;0.40;0.20;;;;;;;14.67;88.30;99971.06;5453467;26;20530;-50
2024/04/15 02:06:33;;;;;;;0.40;0.20;;;;;;;14.69;88.50;99962.97;5453547;26;20584;-50
2024/04/15 02:09:00;;;;;;;0.37;0.20;;;;;;;14.63;87.67;99953.41;5453330;26;20527;-51
2024/04/15 02:11:26;;;;;;;0.40;0.20;;;;;;;14.60;88.77;99945.56;5453439;26;20526;-51
2024/04/15 02:13:53;;;;;;;0.40;0.20;;;;;;;14.59;89.84;99946.50;5453250;26;20477;-51
2024/04/15 02:16:20;;;;;;;0.40;0.20;;;;;;;14.57;89.24;99951.06;5439175;26;20471;-50
2024/04/15 02:18:46;;;;;;;0.40;0.20;;;;;;;14.62;88.48;99956.19;5446347;26;20478;-51
2024/04/15 02:21:13;;;;;;;0.40;0.20;;;;;;;14.93;85.46;99950.13;5453400;26;20800;-50
2024/04/15 02:23:39;;;;;;;0.40;0.20;;;;;;;14.98;82.31;99946.28;5451592;26;20485;-51
2024/04/15 02:26:06;;;;;;;0.40;0.20;;;;;;;14.99;81.57;99948.00;5453544;26;20530;-51
2024/04/15 02:28:33;;;;;;;0.40;0.20;;;;;;;14.90;82.22;99948.47;5453369;26;20474;-50
2024/04/15 02:31:00;;;;;;;0.40;0.20;;;;;;;14.91;82.09;99943.97;5453301;26;20473;-50
2024/04/15 02:33:26;;;;;;;0.40;0.20;;;;;;;14.89;82.02;99957.44;5453060;26;20477;-51
2024/04/15 02:35:53;;;;;;;0.40;0.20;;;;;;;14.91;81.60;99957.38;5453484;26;20466;-51
2024/04/15 02:38:19;;;;;;;0.40;0.20;;;;;;;15.14;80.58;99950.81;5452935;26;20486;-51
2024/04/15 02:40:46;;;;;;;0.40;0.20;;;;;;;14.96;80.18;99950.84;5453303;26;20534;-51
2024/04/15 02:43:13;;;;;;;0.40;0.20;;;;;;;14.85;81.13;99963.03;5453119;26;21013;-51
2024/04/15 02:45:42;;;;;;;0.40;0.20;;;;;;;14.84;81.00;99972.88;5448803;26;20518;-50
2024/04/15 02:48:09;;;;;;;0.40;0.20;;;;;;;15.19;80.33;99967.50;5448472;26;20528;-50
2024/04/15 02:50:35;;;;;;;0.40;0.20;;;;;;;15.25;79.20;99960.03;5430009;26;20495;-50
2024/04/15 02:53:04;;;;;;;0.77;0.77;;;;;;;14.84;81.49;99964.84;5426450;26;20474;-50
2024/04/15 02:55:30;;;;;;;0.40;0.20;;;;;;;14.74;82.34;99947.53;5453192;26;20553;-50
2024/04/15 02:57:57;;;;;;;0.40;0.20;;;;;;;15.18;81.09;99947.03;5452755;26;20582;-51
2024/04/15 03:00:24;;;;;;;0.40;0.20;;;;;;;15.01;81.43;99946.09;5451685;26;20477;-50
2024/04/15 03:02:51;;;;;;;0.40;0.20;;;;;;;14.87;82.76;99932.56;5452507;26;21062;-51
2024/04/15 03:05:20;;;;;;;0.40;0.20;;;;;;;14.64;84.08;99931.06;5452959;26;20489;-50
2024/04/15 03:07:47;;;;;;;0.40;0.20;;;;;;;14.68;85.32;99939.84;5452786;26;21070;-50
2024/04/15 03:10:14;;;;;;;0.30;0.20;;;;;;;14.76;84.24;99945.63;5405733;26;20468;-50
2024/04/15 03:12:40;;;;;;;0.40;0.30;;;;;;;14.77;84.00;99942.03;5452456;26;20478;-50
2024/04/15 03:15:07;;;;;;;0.40;0.20;;;;;;;14.68;85.56;99934.47;5452560;26;20525;-50
2024/04/15 03:17:33;;;;;;;0.40;0.20;;;;;;;14.69;84.74;99936.22;5432964;26;20470;-50
2024/04/15 03:20:00;;;;;;;0.40;0.20;;;;;;;14.62;85.27;99937.44;5452355;26;20478;-50
2024/04/15 03:22:27;;;;;;;0.40;0.20;;;;;;;14.66;85.58;99939.03;5452669;26;20477;-50
2024/04/15 03:24:53;;;;;;;0.40;0.20;;;;;;;14.62;86.35;99937.44;5452686;26;20465;-50
2024/04/15 03:27:20;;;;;;;0.40;0.20;;;;;;;14.99;82.97;99939.97;5452683;26;20877;-50
2024/04/15 03:29:46;;;;;;;0.40;0.20;;;;;;;14.96;81.64;99928.56;5452391;26;20512;-50
2024/04/15 03:32:13;;;;;;;0.40;0.20;;;;;;;14.66;83.50;99931.00;5452400;26;20474;-50
2024/04/15 03:34:40;;;;;;;0.40;0.20;;;;;;;14.58;84.94;99927.88;5452409;26;20470;-50
2024/04/15 03:37:07;;;;;;;0.40;0.20;;;;;;;15.20;81.73;99932.59;5452368;26;20520;-50
2024/04/15 03:39:33;;;;;;;0.40;0.20;;;;;;;15.05;81.06;99928.94;5452132;26;20848;-50
2024/04/15 03:42:00;;;;;;;0.40;0.20;;;;;;;14.97;83.64;99928.47;5452277;26;20477;-50
2024/04/15 03:44:26;;;;;;;0.40;0.20;;;;;;;14.96;82.32;99909.84;5452052;26;20466;-51
2024/04/15 03:46:53;;;;;;;0.40;0.20;;;;;;;15.08;83.03;99911.88;5442843;26;20534;-50
2024/04/15 03:49:20;;;;;;;0.40;0.20;;;;;;;14.87;85.96;99913.84;5447970;26;20529;-50
2024/04/15 03:51:46;;;;;;;0.40;0.20;;;;;;;15.11;82.78;99922.41;5416314;26;20526;-50
2024/04/15 03:54:14;;;;;;;3.90;2.67;;;;;;;14.66;86.60;99921.16;5443191;26;20474;-50
2024/04/15 03:56:40;;;;;;;0.40;0.20;;;;;;;14.71;86.14;99910.25;5450491;26;20528;-50
2024/04/15 03:59:07;;;;;;;0.40;0.20;;;;;;;14.60;87.09;99909.91;5451666;26;20473;-50
2024/04/15 04:01:33;;;;;;;0.40;0.20;;;;;;;15.00;88.29;99925.63;5451843;26;20481;-50
2024/04/15 04:04:00;;;;;;;0.40;0.20;;;;;;;14.70;88.68;99929.91;5451662;26;20533;-50
2024/04/15 04:06:27;;;;;;;0.40;0.20;;;;;;;14.60;88.24;99921.47;5452013;26;20473;-50
2024/04/15 04:08:54;;;;;;;0.40;0.20;;;;;;;14.66;88.64;99920.28;5451725;26;20470;-50
2024/04/15 04:11:22;;;;;;;0.40;0.20;;;;;;;14.63;88.10;99923.13;5452745;26;20526;-50
2024/04/15 04:13:48;;;;;;;0.40;0.20;;;;;;;14.20;88.20;99914.56;5455315;26;20470;-50
2024/04/15 04:16:15;;;;;;;0.40;0.20;;;;;;;14.45;88.47;99924.94;5440735;26;20475;-50
2024/04/15 04:18:42;;;;;;;0.40;0.20;;;;;;;14.64;85.51;99912.34;5448276;26;20891;-50
2024/04/15 04:21:09;;;;;;;0.40;0.20;;;;;;;14.24;87.81;99925.03;5455368;26;20536;-51
2024/04/15 04:23:36;;;;;;;0.40;0.20;;;;;;;14.38;87.05;99916.31;5455237;26;20932;-50
2024/04/15 04:26:03;;;;;;;0.40;0.20;;;;;;;14.38;86.28;99921.66;5455186;26;20473;-51
2024/04/15 04:28:29;;;;;;;0.40;0.20;;;;;;;14.22;86.80;99916.22;5454749;26;20469;-51
2024/04/15 04:31:03;;;;;;;0.40;0.20;;;;;;;14.00;89.92;99920.91;5453227;26;20477;-50
2024/04/15 04:33:31;;;;;;;0.40;0.20;;;;;;;14.26;89.25;99922.31;5454950;26;20473;-51
2024/04/15 04:35:59;;;;;;;0.40;0.20;;;;;;;14.46;87.80;99921.31;5455160;26;20470;-51
2024/04/15 04:38:26;;;;;;;0.40;0.20;;;;;;;14.17;90.00;99918.25;5455138;26;20522;-50
2024/04/15 04:40:57;;;;;;;0.40;0.20;;;;;;;13.91;91.01;99913.31;5455200;26;20482;-50
2024/04/15 04:43:23;;;;;;;0.30;0.20;;;;;;;13.89;90.12;99909.84;5454638;26;20485;-50
2024/04/15 04:45:51;;;;;;;0.37;0.20;;;;;;;13.82;90.23;99908.41;5447901;26;20479;-50
2024/04/15 04:48:19;;;;;;;0.40;0.20;;;;;;;13.79;91.24;99906.75;5452462;26;20886;-50
2024/04/15 04:50:46;;;;;;;0.30;0.20;;;;;;;13.76;92.36;99911.38;5429501;26;21003;-50
2024/04/15 04:53:13;;;;;;;0.40;0.20;;;;;;;13.73;93.81;99911.53;5431104;26;20470;-50
2024/04/15 04:55:39;;;;;;;0.40;0.20;;;;;;;13.77;93.94;99913.97;5454543;26;21017;-50
2024/04/15 04:58:06;;;;;;;0.40;0.20;;;;;;;13.78;93.89;99914.84;5454797;26;20478;-50
2024/04/15 05:00:33;;;;;;;0.40;0.20;;;;;;;13.96;91.57;99915.75;5454183;26;20894;-51
2024/04/15 05:02:59;;;;;;;0.40;0.20;;;;;;;14.34;90.17;99924.56;5454642;26;20477;-51
2024/04/15 05:05:26;;;;;;;0.40;0.30;;;;;;;14.57;88.39;99916.31;5454181;26;20513;-51
2024/04/15 05:07:53;;;;;;;0.40;0.20;;;;;;;14.44;89.42;99925.88;5454086;26;20522;-51
2024/04/15 05:10:19;;;;;;;0.30;0.20;;;;;;;14.27;89.45;99921.34;5453973;26;20469;-50
2024/04/15 05:12:46;;;;;;;0.37;0.20;;;;;;;14.22;91.55;99924.22;5454421;26;21098;-51
2024/04/15 05:15:13;;;;;;;0.30;0.20;;;;;;;14.04;92.20;99927.81;5453811;26;20518;-50
2024/04/15 05:17:39;;;;;;;0.30;0.20;;;;;;;13.89;92.65;99920.53;5434706;26;20469;-51
2024/04/15 05:20:07;;;;;;;0.40;0.20;;;;;;;13.96;93.34;99919.28;5454320;26;20478;-50
2024/04/15 05:22:34;;;;;;;0.40;0.20;;;;;;;13.82;93.39;99919.97;5453612;26;20522;-51
2024/04/15 05:25:00;;;;;;;0.40;0.20;;;;;;;13.88;94.11;99917.00;5454222;26;20469;-50
2024/04/15 05:27:27;;;;;;;0.40;0.40;;;;;;;13.89;94.47;99915.19;5454225;26;21074;-50
2024/04/15 05:29:54;;;;;;;0.40;0.20;;;;;;;13.90;95.54;99907.09;5454317;26;20522;-51
2024/04/15 05:32:20;;;;;;;0.30;0.20;;;;;;;13.98;95.98;99904.09;5454158;26;20481;-50
2024/04/15 05:34:47;;;;;;;0.33;0.20;;;;;;;13.83;94.54;99894.97;5453978;26;21002;-51
2024/04/15 05:37:13;;;;;;;0.40;0.20;;;;;;;13.91;95.54;99891.94;5454322;26;21061;-50
2024/04/15 05:39:40;;;;;;;0.30;0.20;;;;;;;13.94;96.41;99897.13;5454033;26;20473;-51
2024/04/15 05:42:07;;;;;;;0.40;0.20;;;;;;;13.98;95.25;99900.50;5454117;26;20537;-50
2024/04/15 05:44:33;;;;;;;0.30;0.20;;;;;;;13.99;94.72;99904.94;5453838;26;20991;-51
2024/04/15 05:47:00;;;;;;;0.30;0.20;;;;;;;13.92;93.94;99897.22;5445450;26;20474;-50
2024/04/15 05:49:26;;;;;;;0.40;0.20;;;;;;;14.11;92.52;99902.50;5448113;26;20471;-51
2024/04/15 05:51:53;;;;;;;0.30;0.20;;;;;;;14.13;90.70;99899.78;5418201;26;20539;-50
2024/04/15 05:54:19;;;;;;;0.30;0.20;;;;;;;14.11;91.39;99905.19;5446549;26;20474;-51
2024/04/15 05:56:46;;;;;;;0.40;0.20;;;;;;;14.34;90.58;99911.19;5453600;26;20477;-51
2024/04/15 05:59:12;;;;;;;0.30;0.20;;;;;;;14.19;86.54;99897.66;5453963;26;20568;-50
2024/04/15 06:01:39;;;;;;;0.30;0.20;;;;;;;14.18;86.33;99913.78;5453563;26;20474;-50
2024/04/15 06:04:07;;;;;;;0.30;0.20;;;;;;;14.56;86.70;99914.56;5453397;26;20526;-51
2024/04/15 06:06:34;;;;;;;0.30;0.20;;;;;;;14.55;86.72;99911.97;5453954;26;20478;-51
2024/04/15 06:09:01;;;;;;;0.40;0.20;;;;;;;14.49;85.34;99911.31;5453359;26;20485;-51
2024/04/15 06:11:27;;;;;;;0.30;0.20;;;;;;;14.50;81.95;99904.16;5453755;26;20473;-51
2024/04/15 06:13:54;;;;;;;0.30;0.20;;;;;;;14.33;80.36;99901.44;5453341;26;20482;-51
2024/04/15 06:16:20;;;;;;;0.40;0.20;;;;;;;14.42;78.91;99901.00;5439121;26;21039;-51
2024/04/15 06:18:47;;;;;;;0.30;0.20;;;;;;;14.30;79.75;99905.16;5411134;26;20486;-50
2024/04/15 06:21:15;;;;;;;0.30;0.20;;;;;;;14.24;78.94;99900.97;5436019;26;20541;-50
2024/04/15 06:23:43;;;;;;;0.30;0.20;;;;;;;14.15;77.85;99892.56;5453420;26;20534;-50
2024/04/15 06:26:09;;;;;;;0.40;0.30;;;;;;;14.19;76.88;99886.97;5453662;26;20481;-50
2024/04/15 06:28:36;;;;;;;0.30;0.20;;;;;;;14.34;76.65;99892.47;5453092;26;20593;-50
2024/04/15 06:31:03;;;;;;;0.30;0.20;;;;;;;14.60;76.30;99891.19;5453274;26;20489;-50
2024/04/15 06:33:30;;;;;;;0.30;0.20;;;;;;;15.10;75.36;99880.50;5453118;26;20485;-50
2024/04/15 06:35:56;;;;;;;0.37;0.20;;;;;;;15.45;72.58;99878.56;5451822;26;20514;-50
2024/04/15 06:38:23;;;;;;;0.30;0.20;;;;;;;15.24;71.30;99869.94;5452903;26;20485;-51
2024/04/15 06:40:49;;;;;;;0.40;0.20;;;;;;;15.39;69.38;99865.53;5453121;26;20473;-50
2024/04/15 06:43:16;;;;;;;0.40;0.33;;;;;;;15.29;67.26;99867.84;5452816;26;20526;-50
2024/04/15 06:45:42;;;;;;;0.30;0.20;;;;;;;15.45;65.80;99873.22;5447534;26;20482;-51
2024/04/15 06:48:09;;;;;;;0.40;0.20;;;;;;;15.38;65.54;99872.72;5450157;26;20522;-50
2024/04/15 06:50:36;;;;;;;0.30;0.20;;;;;;;15.18;66.44;99869.38;5430086;26;20593;-50
2024/04/15 06:53:04;;;;;;;0.30;0.20;;;;;;;15.36;67.31;99852.31;5426648;26;20523;-50
2024/04/15 06:55:31;;;;;;;0.40;0.20;;;;;;;15.43;64.59;99847.47;5452921;26;20591;-51
2024/04/15 06:57:57;;;;;;;0.37;0.20;;;;;;;15.36;64.91;99849.66;5452566;26;20587;-50
2024/04/15 07:00:24;;;;;;;0.40;0.20;;;;;;;15.62;64.99;99840.16;5451145;26;20526;-50
2024/04/15 07:02:52;;;;;;;0.40;0.20;;;;;;;15.92;60.24;99834.88;5452652;26;20914;-51
2024/04/15 07:05:19;;;;;;;0.33;0.20;;;;;;;15.92;60.68;99835.75;5452931;26;20530;-50
2024/04/15 07:07:45;;;;;;;0.30;0.20;;;;;;;15.93;61.20;99840.16;5452736;26;20470;-50
2024/04/15 07:10:12;;;;;;;0.40;0.20;;;;;;;16.17;59.75;99834.28;5453046;26;20526;-51
2024/04/15 07:12:39;;;;;;;0.83;0.83;;;;;;;15.95;61.53;99818.63;5452353;26;20587;-50
2024/04/15 07:15:05;;;;;;;0.40;0.20;;;;;;;15.98;62.19;99818.44;5452751;26;20522;-51
2024/04/15 07:17:32;;;;;;;0.40;0.20;;;;;;;16.20;61.71;99818.91;5431340;26;20551;-50
2024/04/15 07:19:58;;;;;;;0.40;0.20;;;;;;;16.42;60.93;99805.06;5452655;26;20549;-50
2024/04/15 07:22:25;;;;;;;0.37;0.20;;;;;;;16.16;62.12;99795.88;5428197;26;20473;-51
2024/04/15 07:24:53;;;;;;;0.40;0.20;;;;;;;16.25;63.51;99784.63;5452398;26;20461;-50
2024/04/15 07:27:19;;;;;;;0.40;0.20;;;;;;;16.09;62.19;99791.84;5452572;26;20466;-50
2024/04/15 07:29:46;;;;;;;0.40;0.20;;;;;;;16.06;60.75;99783.13;5452301;26;21092;-50
2024/04/15 07:32:13;;;;;;;0.40;0.20;;;;;;;16.14;59.48;99780.84;5452373;26;20526;-50
2024/04/15 07:34:43;;;;;;;0.40;0.20;;;;;;;16.30;60.40;99776.28;5452172;26;20486;-50
2024/04/15 07:37:10;;;;;;;0.40;0.20;;;;;;;16.57;58.69;99758.50;5452589;26;20526;-51
2024/04/15 07:39:38;;;;;;;0.40;0.20;;;;;;;16.29;58.88;99759.34;5452136;26;20862;-50
2024/04/15 07:42:06;;;;;;;0.40;0.20;;;;;;;16.80;57.19;99757.13;5439527;26;20557;-50
2024/04/15 07:44:32;;;;;;;0.40;0.20;;;;;;;16.85;55.92;99762.19;5452004;26;20526;-50
2024/04/15 07:46:59;;;;;;;0.40;0.20;;;;;;;16.50;54.72;99767.91;5442687;26;20529;-50
2024/04/15 07:49:26;;;;;;;0.40;0.20;;;;;;;17.07;54.28;99756.34;5446592;26;20589;-50
2024/04/15 07:51:52;;;;;;;0.40;0.20;;;;;;;17.05;53.95;99763.63;5416523;26;20475;-50
2024/04/15 07:54:19;;;;;;;0.40;0.20;;;;;;;17.32;53.07;99763.69;5444267;26;20591;-50
2024/04/15 07:56:45;;;;;;;0.40;0.20;;;;;;;17.83;51.04;99770.19;5451995;26;20461;-51
2024/04/15 07:59:12;;;;;;;0.40;0.20;;;;;;;17.38;51.49;99760.59;5451714;26;20518;-50
2024/04/15 08:01:39;;;;;;;0.40;0.20;;;;;;;17.61;51.38;99759.94;5452193;26;20478;-47
2024/04/15 08:04:06;;;;;;;0.40;0.20;;;;;;;17.37;51.51;99757.03;5451605;26;20537;-49
2024/04/15 08:06:33;;;;;;;0.40;0.20;;;;;;;17.29;51.15;99770.13;5451949;26;20474;-48
2024/04/15 08:08:59;;;;;;;0.40;0.20;;;;;;;17.20;51.89;99776.06;5451663;26;20473;-48
2024/04/15 08:11:26;;;;;;;0.40;0.20;;;;;;;16.80;52.10;99770.53;5451687;26;20835;-47
2024/04/15 08:13:53;;;;;;;0.40;0.20;;;;;;;16.62;53.47;99782.38;5451618;26;20584;-47
2024/04/15 08:16:20;;;;;;;0.40;0.20;;;;;;;17.00;53.26;99771.13;5437506;26;20470;-47
2024/04/15 08:18:48;;;;;;;0.40;0.20;;;;;;;17.13;52.33;99770.25;5445237;26;20474;-48
2024/04/15 08:21:14;;;;;;;0.40;0.20;;;;;;;17.14;53.41;99768.41;5451914;26;20526;-47
2024/04/15 08:23:41;;;;;;;0.40;0.20;;;;;;;17.11;52.75;99761.41;5451468;26;20482;-48
2024/04/15 08:26:07;;;;;;;0.40;0.20;;;;;;;17.13;51.26;99761.28;5451890;26;20473;-48
2024/04/15 08:28:34;;;;;;;0.40;0.20;;;;;;;17.17;51.75;99754.78;5451476;26;20478;-48
2024/04/15 08:31:01;;;;;;;0.40;0.20;;;;;;;17.36;51.16;99749.94;5451709;26;20885;-48
2024/04/15 08:33:27;;;;;;;0.40;0.20;;;;;;;17.25;50.53;99738.16;5451529;26;20486;-48
2024/04/15 08:35:54;;;;;;;0.40;0.20;;;;;;;16.91;49.73;99734.09;5451399;26;20474;-49
2024/04/15 08:38:20;;;;;;;0.40;0.20;;;;;;;17.25;50.64;99725.59;5451149;26;20551;-48
2024/04/15 08:40:54;;;;;;;0.40;0.20;;;;;;;17.60;50.51;99719.72;5451370;26;20477;-49
2024/04/15 08:43:22;;;;;;;0.40;0.20;;;;;;;17.53;49.71;99715.72;5451282;26;20568;-48
2024/04/15 08:45:54;;;;;;;0.40;0.20;;;;;;;17.45;48.52;99714.41;5444636;26;21153;-48
2024/04/15 08:48:25;;;;;;;0.40;0.20;;;;;;;17.55;47.91;99719.19;5426181;26;20886;-48
2024/04/15 08:50:57;;;;;;;0.40;0.20;;;;;;;17.80;48.93;99704.97;5424355;26;20543;-47
2024/04/15 08:53:24;;;;;;;0.40;0.20;;;;;;;18.20;47.43;99703.09;5430441;26;20470;-49
2024/04/15 08:55:50;;;;;;;0.40;0.20;;;;;;;17.74;47.67;99692.81;5450996;26;20490;-48
2024/04/15 08:58:17;;;;;;;0.40;0.20;;;;;;;18.47;46.73;99694.94;5452113;26;20469;-47
2024/04/15 09:00:45;;;;;;;0.40;0.20;;;;;;;18.11;46.59;99701.94;5454382;26;20576;-47
2024/04/15 09:03:12;;;;;;;0.40;0.20;;;;;;;17.96;44.34;99681.47;5454799;26;20525;-48
2024/04/15 09:05:38;;;;;;;0.40;0.20;;;;;;;18.15;45.35;99672.97;5454477;26;20478;-49
2024/04/15 09:08:05;;;;;;;0.40;0.20;;;;;;;18.02;45.94;99670.28;5454770;26;21134;-48
2024/04/15 09:10:32;;;;;;;0.40;0.20;;;;;;;18.09;45.22;99666.19;5454332;26;20526;-47
2024/04/15 09:13:00;;;;;;;0.40;0.20;;;;;;;18.72;45.12;99668.00;5454446;26;20869;-48
2024/04/15 09:15:27;;;;;;;0.40;0.20;;;;;;;18.71;45.23;99660.91;5452968;26;20582;-48
2024/04/15 09:17:54;;;;;;;0.40;0.20;;;;;;;18.55;45.36;99663.81;5436390;26;20583;-48
2024/04/15 09:20:21;;;;;;;0.40;0.20;;;;;;;18.50;45.24;99659.72;5454093;26;20532;-48
2024/04/15 09:23:08;;;;;;;0.40;0.20;;;;;;;18.39;45.33;99649.72;5454550;26;20533;-48
2024/04/15 09:25:35;;;;;;;0.40;0.20;;;;;;;18.48;43.96;99651.75;5454239;26;20480;-48
2024/04/15 09:28:04;;;;;;;0.40;0.20;;;;;;;18.75;43.71;99654.31;5454392;26;20510;-48
2024/04/15 09:30:31;;;;;;;0.40;0.20;;;;;;;18.61;43.66;99630.19;5454223;26;20583;-49
2024/04/15 09:32:59;;;;;;;0.40;0.20;;;;;;;18.35;43.73;99630.22;5454218;26;20595;-47
2024/04/15 09:35:27;;;;;;;0.40;0.20;;;;;;;19.02;43.48;99629.03;5454185;26;20525;-48
2024/04/15 09:37:55;;;;;;;0.40;0.20;;;;;;;18.50;42.63;99611.25;5454039;26;20465;-49
2024/04/15 09:40:25;;;;;;;0.40;0.20;;;;;;;18.89;42.72;99616.47;5454237;26;20466;-48
2024/04/15 09:42:52;;;;;;;0.40;0.20;;;;;;;18.78;42.35;99602.97;5453842;26;20469;-48
2024/04/15 09:45:20;;;;;;;0.40;0.20;;;;;;;19.14;42.44;99598.50;5454399;26;20466;-48
2024/04/15 09:47:50;;;;;;;0.40;0.20;;;;;;;18.62;42.48;99595.09;5445748;26;20588;-48
2024/04/15 09:50:20;;;;;;;0.40;0.20;;;;;;;18.88;43.25;99595.03;5436749;26;21011;-48
2024/04/15 09:52:55;;;;;;;0.40;0.20;;;;;;;18.90;43.22;99585.00;5423869;26;20576;-48
2024/04/15 09:55:30;;;;;;;0.40;0.20;;;;;;;18.86;43.12;99587.06;5454120;26;20526;-49
2024/04/15 09:57:58;;;;;;;0.40;0.20;;;;;;;18.31;42.94;99574.06;5453820;26;20481;-47
2024/04/15 10:00:26;;;;;;;0.40;0.20;;;;;;;18.31;43.05;99566.84;5454078;26;20556;-48
2024/04/15 10:02:57;;;;;;;0.40;0.20;;;;;;;18.50;43.48;99571.78;5453810;26;20469;-48
2024/04/15 10:05:25;;;;;;;0.40;0.20;;;;;;;18.75;43.63;99552.00;5453933;26;20892;-48
2024/04/15 10:07:54;;;;;;;0.40;0.20;;;;;;;18.71;42.53;99552.34;5453750;26;20498;-48
2024/04/15 10:10:21;;;;;;;0.40;0.20;;;;;;;18.57;43.08;99545.25;5453283;26;20561;-48
2024/04/15 10:12:49;;;;;;;0.40;0.20;;;;;;;18.25;43.42;99547.59;5453604;26;20449;-48
2024/04/15 10:15:21;;;;;;;0.40;0.20;;;;;;;18.78;43.46;99540.16;5453483;26;20526;-48
2024/04/15 10:18:14;;;;;;;0.40;0.20;;;;;;;19.08;42.32;99532.47;5453795;26;20525;-48
2024/04/15 10:20:45;;;;;;;0.40;0.20;;;;;;;19.01;42.60;99525.81;5449279;26;20526;-48
2024/04/15 10:23:19;;;;;;;0.40;0.20;;;;;;;18.96;41.15;99521.75;5453350;26;20474;-48
2024/04/15 10:25:49;;;;;;;0.40;0.20;;;;;;;19.06;40.85;99509.31;5453724;26;20473;-48
2024/04/15 10:28:16;;;;;;;0.40;0.20;;;;;;;19.02;41.72;99505.97;5452772;26;20526;-48
2024/04/15 10:30:45;;;;;;;0.40;0.20;;;;;;;19.08;40.51;99501.97;5451657;26;20481;-48
2024/04/15 10:33:15;;;;;;;0.40;0.20;;;;;;;19.60;40.59;99493.44;5453257;26;20521;-48
2024/04/15 10:35:43;;;;;;;0.40;0.20;;;;;;;19.42;40.76;99486.75;5453392;26;20904;-48
2024/04/15 10:38:11;;;;;;;0.40;0.20;;;;;;;19.60;40.03;99501.53;5453068;26;20832;-48
2024/04/15 10:40:42;;;;;;;0.40;0.20;;;;;;;19.85;40.06;99478.84;5453136;26;20548;-49
2024/04/15 10:43:12;;;;;;;0.40;0.20;;;;;;;19.75;38.31;99476.03;5453069;26;20482;-48
2024/04/15 10:45:39;;;;;;;0.40;0.20;;;;;;;20.07;38.31;99472.59;5448821;26;20581;-48
2024/04/15 10:48:06;;;;;;;0.40;0.20;;;;;;;20.25;38.46;99473.78;5449009;26;21081;-48
2024/04/15 10:50:33;;;;;;;0.40;0.20;;;;;;;20.45;38.07;99474.91;5430981;26;20483;-49
2024/04/15 10:53:00;;;;;;;0.40;0.20;;;;;;;20.03;37.86;99461.19;5426362;26;20867;-48
2024/04/15 10:55:27;;;;;;;0.40;0.20;;;;;;;19.90;37.35;99454.22;5453148;26;20470;-48
2024/04/15 10:57:53;;;;;;;0.40;0.20;;;;;;;20.43;37.43;99447.19;5452730;26;21118;-48
2024/04/15 11:00:23;;;;;;;0.40;0.20;;;;;;;20.20;36.88;99458.97;5452772;26;20482;-48
2024/04/15 11:02:51;;;;;;;0.40;0.20;;;;;;;19.85;36.59;99442.94;5452382;26;20919;-48
2024/04/15 11:05:19;;;;;;;0.40;0.20;;;;;;;19.98;37.27;99444.50;5452680;26;20587;-47
2024/04/15 11:07:53;;;;;;;0.40;0.20;;;;;;;19.97;37.12;99433.84;5405373;26;20526;-48
2024/04/15 11:10:20;;;;;;;0.40;0.20;;;;;;;20.10;36.49;99431.88;5452447;26;20476;-48
2024/04/15 11:12:51;;;;;;;0.40;0.20;;;;;;;20.22;35.10;99414.66;5452825;26;20948;-47
2024/04/15 11:15:18;;;;;;;0.40;0.20;;;;;;;20.27;36.20;99415.13;5452468;26;20473;-48
2024/04/15 11:17:50;;;;;;;0.40;0.20;;;;;;;20.03;35.98;99396.44;5433807;26;20449;-48
2024/04/15 11:20:18;;;;;;;0.40;0.20;;;;;;;19.91;36.12;99392.06;5452301;26;20470;-48
2024/04/15 11:22:46;;;;;;;0.40;0.20;;;;;;;19.79;36.41;99402.00;5451978;26;20506;-49
2024/04/15 11:25:14;;;;;;;0.40;0.20;;;;;;;19.66;35.85;99379.69;5450188;26;20529;-48
2024/04/15 11:27:44;;;;;;;0.40;0.20;;;;;;;19.74;37.07;99379.09;5452578;26;20871;-48
2024/04/15 11:30:15;;;;;;;0.40;0.20;;;;;;;20.22;37.19;99374.19;5452103;26;20808;-48
2024/04/15 11:32:42;;;;;;;0.40;0.20;;;;;;;20.25;38.48;99368.53;5452424;26;20478;-48